createdAt,value
2024-02-05T00:02:12.229Z,11.75
2024-02-05T00:04:39.114Z,9.30
2024-02-05T00:07:06.078Z,8.95
2024-02-05T00:09:33.011Z,11.38
2024-02-05T00:12:01.046Z,11.73
2024-02-05T00:14:28.316Z,9.50
2024-02-05T00:16:55.217Z,8.98
2024-02-05T00:19:22.697Z,8.68
2024-02-05T00:21:49.665Z,9.02
2024-02-05T00:24:16.596Z,7.07
2024-02-05T00:26:43.455Z,10.15
2024-02-05T00:29:10.342Z,8.45
2024-02-05T00:31:37.728Z,8.07
2024-02-05T00:34:04.735Z,12.00
2024-02-05T00:36:31.643Z,10.45
2024-02-05T00:38:58.580Z,7.85
2024-02-05T00:41:25.346Z,5.40
2024-02-05T00:43:52.230Z,7.43
2024-02-05T00:46:23.983Z,8.82
2024-02-05T00:48:51.495Z,6.28
2024-02-05T00:51:18.550Z,7.75
2024-02-05T00:53:45.382Z,6.78
2024-02-05T00:56:14.775Z,8.65
2024-02-05T00:58:41.909Z,7.20
2024-02-05T01:01:08.867Z,6.22
2024-02-05T01:03:35.920Z,10.40
2024-02-05T01:06:05.049Z,7.38
2024-02-05T01:08:32.282Z,9.00
2024-02-05T01:10:59.095Z,9.73
2024-02-05T01:13:26.166Z,15.25
2024-02-05T01:15:53.018Z,11.95
2024-02-05T01:18:20.018Z,11.35
2024-02-05T01:20:47.082Z,10.25
2024-02-05T01:23:14.762Z,16.67
2024-02-05T01:25:42.082Z,14.63
2024-02-05T01:28:09.128Z,13.20
2024-02-05T01:30:36.374Z,13.10
2024-02-05T01:33:03.524Z,13.93
2024-02-05T01:35:30.475Z,18.67
2024-02-05T01:37:57.616Z,16.92
2024-02-05T01:40:24.667Z,24.17
2024-02-05T01:42:51.687Z,19.25
2024-02-05T01:45:18.794Z,17.27
2024-02-05T01:47:45.729Z,17.33
2024-02-05T01:50:15.366Z,15.02
2024-02-05T01:53:01.891Z,15.05
2024-02-05T01:55:29.887Z,21.40
2024-02-05T01:57:58.188Z,17.30
2024-02-05T02:00:26.709Z,19.33
2024-02-05T02:02:53.853Z,21.60
2024-02-05T02:05:21.308Z,15.88
2024-02-05T02:07:48.910Z,21.02
2024-02-05T02:10:15.851Z,18.67
2024-02-05T02:12:42.941Z,19.50
2024-02-05T02:15:10.046Z,15.52
2024-02-05T02:17:41.422Z,18.83
2024-02-05T02:20:11.126Z,21.67
2024-02-05T02:22:58.863Z,16.38
2024-02-05T02:25:26.268Z,21.48
2024-02-05T02:27:54.430Z,21.52
2024-02-05T02:30:23.125Z,23.35
2024-02-05T02:33:47.158Z,20.33
2024-02-05T02:36:23.032Z,27.45
2024-02-05T02:38:56.038Z,22.13
2024-02-05T02:41:31.544Z,19.35
2024-02-05T02:44:02.838Z,16.83
2024-02-05T02:46:30.384Z,18.30
2024-02-05T02:48:57.738Z,24.23
2024-02-05T02:51:25.198Z,28.60
2024-02-05T02:53:52.130Z,22.42
2024-02-05T02:56:19.896Z,28.25
2024-02-05T02:58:46.906Z,19.75
2024-02-05T03:01:14.192Z,34.28
2024-02-05T03:03:43.423Z,24.13
2024-02-05T03:06:10.438Z,24.33
2024-02-05T03:08:37.295Z,28.88
2024-02-05T03:11:04.233Z,26.40
2024-02-05T03:13:31.105Z,23.98
2024-02-05T03:15:58.168Z,23.70
2024-02-05T03:18:25.077Z,34.50
2024-02-05T03:20:51.889Z,24.80
2024-02-05T03:23:19.053Z,26.77
2024-02-05T03:25:45.982Z,31.77
2024-02-05T03:28:12.910Z,29.52
2024-02-05T03:30:42.423Z,36.45
2024-02-05T03:33:09.547Z,37.50
2024-02-05T03:35:36.995Z,33.45
2024-02-05T03:38:04.072Z,29.65
2024-02-05T03:40:30.990Z,31.63
2024-02-05T03:42:57.919Z,34.28
2024-02-05T03:45:24.730Z,36.90
2024-02-05T03:47:51.631Z,39.00
2024-02-05T03:50:18.967Z,40.00
2024-02-05T03:52:49.447Z,37.45
2024-02-05T03:55:16.670Z,36.70
2024-02-05T03:57:47.010Z,32.00
2024-02-05T04:00:14.508Z,26.65
2024-02-05T04:02:44.167Z,29.10
2024-02-05T04:05:11.116Z,39.95
2024-02-05T04:07:38.517Z,37.63
2024-02-05T04:10:06.229Z,32.88
2024-02-05T04:12:33.096Z,38.90
2024-02-05T04:14:59.906Z,37.30
2024-02-05T04:17:27.562Z,32.22
2024-02-05T04:19:54.487Z,31.25
2024-02-05T04:22:21.531Z,36.65
2024-02-05T04:24:48.577Z,32.58
2024-02-05T04:27:16.000Z,40.05
2024-02-05T04:29:43.095Z,31.80
2024-02-05T04:32:11.518Z,33.90
2024-02-05T04:34:38.556Z,25.30
2024-02-05T04:37:05.932Z,36.53
2024-02-05T04:39:32.914Z,35.53
2024-02-05T04:41:59.776Z,32.03
2024-02-05T04:44:26.576Z,34.63
2024-02-05T04:46:53.567Z,39.35
2024-02-05T04:49:20.558Z,36.78
2024-02-05T04:51:51.271Z,32.05
2024-02-05T04:54:18.497Z,42.63
2024-02-05T04:56:45.727Z,36.33
2024-02-05T04:59:12.560Z,33.30
2024-02-05T05:01:39.498Z,33.72
2024-02-05T05:04:06.547Z,34.88
2024-02-05T05:06:33.593Z,32.95
2024-02-05T05:09:00.490Z,39.60
2024-02-05T05:11:27.631Z,38.38
2024-02-05T05:13:54.452Z,36.97
2024-02-05T05:16:22.438Z,36.92
2024-02-05T05:18:49.509Z,33.67
2024-02-05T05:21:16.449Z,45.42
2024-02-05T05:23:43.872Z,36.30
2024-02-05T05:26:11.104Z,36.10
2024-02-05T05:28:41.735Z,33.50
2024-02-05T05:31:08.842Z,34.97
2024-02-05T05:33:37.549Z,38.03
2024-02-05T05:36:05.327Z,42.38
2024-02-05T05:38:32.136Z,39.58
2024-02-05T05:40:59.025Z,42.95
2024-02-05T05:43:25.943Z,42.08
2024-02-05T05:45:53.118Z,36.60
2024-02-05T05:48:20.101Z,31.40
2024-02-05T05:50:46.973Z,28.77
2024-02-05T05:53:13.821Z,35.13
2024-02-05T05:55:41.266Z,36.92
2024-02-05T05:58:08.152Z,36.65
2024-02-05T06:00:35.233Z,40.25
2024-02-05T06:03:02.123Z,39.13
2024-02-05T06:05:29.073Z,43.15
2024-02-05T06:07:55.955Z,41.92
2024-02-05T06:10:22.948Z,37.03
2024-02-05T06:12:50.037Z,49.22
2024-02-05T06:15:17.253Z,39.78
2024-02-05T06:17:44.343Z,37.55
2024-02-05T06:20:15.223Z,50.55
2024-02-05T06:22:44.417Z,44.63
2024-02-05T06:25:11.683Z,38.38
2024-02-05T06:27:38.705Z,40.97
2024-02-05T06:30:07.258Z,41.35
2024-02-05T06:32:34.542Z,34.38
2024-02-05T06:35:02.617Z,34.17
2024-02-05T06:37:29.965Z,43.50
2024-02-05T06:39:56.991Z,36.63
2024-02-05T06:42:24.365Z,35.00
2024-02-05T06:44:52.802Z,40.03
2024-02-05T06:47:19.825Z,36.30
2024-02-05T06:49:46.793Z,31.20
2024-02-05T06:52:13.739Z,27.58
2024-02-05T06:54:40.644Z,44.80
2024-02-05T06:57:07.506Z,43.03
2024-02-05T06:59:34.442Z,35.20
2024-02-05T07:02:01.537Z,30.92
2024-02-05T07:04:28.513Z,37.65
2024-02-05T07:06:55.709Z,34.50
2024-02-05T07:09:23.454Z,35.67
2024-02-05T07:11:50.835Z,39.88
2024-02-05T07:14:17.702Z,41.85
2024-02-05T07:16:44.760Z,38.38
2024-02-05T07:19:11.820Z,32.92
2024-02-05T07:21:38.832Z,37.42
2024-02-05T07:24:05.945Z,31.67
2024-02-05T07:26:35.589Z,45.78
2024-02-05T07:29:02.494Z,32.15
2024-02-05T07:31:30.024Z,42.05
2024-02-05T07:33:58.764Z,34.97
2024-02-05T07:36:27.959Z,31.50
2024-02-05T07:38:55.626Z,34.47
2024-02-05T07:41:22.421Z,33.85
2024-02-05T07:43:49.247Z,33.95
2024-02-05T07:46:16.280Z,35.13
2024-02-05T07:48:43.328Z,32.83
2024-02-05T07:51:10.294Z,38.10
2024-02-05T07:53:37.422Z,41.15
2024-02-05T07:56:10.116Z,38.42
2024-02-05T07:58:38.445Z,39.45
2024-02-05T08:01:05.938Z,38.85
2024-02-05T08:03:33.532Z,29.75
2024-02-05T08:06:04.692Z,34.97
2024-02-05T08:08:31.552Z,31.95
2024-02-05T08:10:58.421Z,33.03
2024-02-05T08:13:25.477Z,41.85
2024-02-05T08:15:52.841Z,41.40
2024-02-05T08:18:20.030Z,29.67
2024-02-05T08:20:47.241Z,33.30
2024-02-05T08:23:14.491Z,31.98
2024-02-05T08:25:41.632Z,36.55
2024-02-05T08:28:08.654Z,41.30
2024-02-05T08:30:35.485Z,34.88
2024-02-05T08:33:02.823Z,34.78
2024-02-05T08:35:29.953Z,43.22
2024-02-05T08:37:56.834Z,35.20
2024-02-05T08:40:23.876Z,41.60
2024-02-05T08:42:50.849Z,28.88
2024-02-05T08:45:19.981Z,33.10
2024-02-05T08:47:47.681Z,39.10
2024-02-05T08:50:15.583Z,48.53
2024-02-05T08:52:42.798Z,34.42
2024-02-05T08:55:10.387Z,32.65
2024-02-05T08:57:38.249Z,32.72
2024-02-05T09:00:10.671Z,41.75
2024-02-05T09:02:38.351Z,39.65
2024-02-05T09:05:06.215Z,32.40
2024-02-05T09:07:33.590Z,33.22
2024-02-05T09:10:00.600Z,30.13
2024-02-05T09:12:27.515Z,35.72
2024-02-05T09:14:55.616Z,36.00
2024-02-05T09:17:22.554Z,38.95
2024-02-05T09:19:50.022Z,37.90
2024-02-05T09:22:17.702Z,33.90
2024-02-05T09:24:45.702Z,34.50
2024-02-05T09:27:13.199Z,47.00
2024-02-05T09:29:40.045Z,34.53
2024-02-05T09:32:07.030Z,37.00
2024-02-05T09:34:34.724Z,27.67
2024-02-05T09:37:01.850Z,36.22
2024-02-05T09:39:29.116Z,35.70
2024-02-05T09:42:01.418Z,37.05
2024-02-05T09:44:29.458Z,37.38
2024-02-05T09:46:57.484Z,38.53
2024-02-05T09:49:24.798Z,36.35
2024-02-05T09:51:52.577Z,35.97
2024-02-05T09:54:22.761Z,32.45
2024-02-05T09:56:52.452Z,30.05
2024-02-05T09:59:19.596Z,33.10
2024-02-05T10:01:47.404Z,34.53
2024-02-05T10:04:16.429Z,34.33
2024-02-05T10:06:46.835Z,47.58
2024-02-05T10:09:13.897Z,30.50
2024-02-05T10:11:50.210Z,30.77
2024-02-05T10:14:17.467Z,35.75
2024-02-05T10:16:44.615Z,33.38
2024-02-05T10:19:11.835Z,36.55
2024-02-05T10:21:38.840Z,33.42
2024-02-05T10:24:06.152Z,33.60
2024-02-05T10:26:33.095Z,32.60
2024-02-05T10:29:07.857Z,31.25
2024-02-05T10:31:43.484Z,37.35
2024-02-05T10:34:17.707Z,33.90
2024-02-05T10:36:45.242Z,34.47
2024-02-05T10:39:26.976Z,31.48
2024-02-05T10:41:56.326Z,35.25
2024-02-05T10:44:33.799Z,28.27
2024-02-05T10:47:07.891Z,29.40
2024-02-05T10:49:35.490Z,30.85
2024-02-05T10:52:04.953Z,38.90
2024-02-05T10:54:34.722Z,31.67
2024-02-05T10:57:02.356Z,33.72
2024-02-05T10:59:29.183Z,34.30
2024-02-05T11:02:05.204Z,36.60
2024-02-05T11:04:33.110Z,29.63
2024-02-05T11:07:03.267Z,25.95
2024-02-05T11:09:33.755Z,34.92
2024-02-05T11:12:03.394Z,34.70
2024-02-05T11:14:32.314Z,27.50
2024-02-05T11:17:00.545Z,34.42
2024-02-05T11:19:31.794Z,27.08
2024-02-05T11:22:04.803Z,27.48
2024-02-05T11:24:34.050Z,37.53
2024-02-05T11:27:05.718Z,28.77
2024-02-05T11:29:33.419Z,24.67
2024-02-05T11:32:00.991Z,32.53
2024-02-05T11:34:38.771Z,29.20
2024-02-05T11:37:26.338Z,35.40
2024-02-05T11:39:55.999Z,27.98
2024-02-05T11:42:23.086Z,30.10
2024-02-05T11:44:50.758Z,34.53
2024-02-05T11:47:18.212Z,32.05
2024-02-05T11:49:45.906Z,32.65
2024-02-05T11:52:13.814Z,25.63
2024-02-05T11:54:41.553Z,29.77
2024-02-05T11:57:08.901Z,27.67
2024-02-05T11:59:36.180Z,26.45
2024-02-05T12:02:04.514Z,30.50
2024-02-05T12:04:32.369Z,28.23
2024-02-05T12:06:59.450Z,28.83
2024-02-05T12:09:27.242Z,26.20
2024-02-05T12:11:54.473Z,31.52
2024-02-05T12:14:22.100Z,32.58
2024-02-05T12:16:49.245Z,29.42
2024-02-05T12:19:27.443Z,32.28
2024-02-05T12:21:54.906Z,32.83
2024-02-05T12:24:22.367Z,35.40
2024-02-05T12:26:49.458Z,35.97
2024-02-05T12:29:24.813Z,31.17
2024-02-05T12:31:56.604Z,33.85
2024-02-05T12:34:24.688Z,29.10
2024-02-05T12:36:52.169Z,31.10
2024-02-05T12:39:22.024Z,32.00
2024-02-05T12:41:50.432Z,29.88
2024-02-05T12:44:23.366Z,33.45
2024-02-05T12:46:59.960Z,42.50
2024-02-05T12:49:27.426Z,35.25
2024-02-05T12:51:55.157Z,34.63
2024-02-05T12:54:23.645Z,31.27
2024-02-05T12:56:52.110Z,32.50
2024-02-05T12:59:19.747Z,31.73
2024-02-05T13:01:59.248Z,35.00
2024-02-05T13:04:28.573Z,29.75
2024-02-05T13:07:13.176Z,32.80
2024-02-05T13:09:42.435Z,29.15
2024-02-05T13:12:09.702Z,38.22
2024-02-05T13:14:37.042Z,37.28
2024-02-05T13:17:06.530Z,32.22
2024-02-05T13:19:34.406Z,30.00
2024-02-05T13:22:01.848Z,32.30
2024-02-05T13:24:29.109Z,32.05
2024-02-05T13:26:56.206Z,33.28
2024-02-05T13:29:26.354Z,32.05
2024-02-05T13:31:53.991Z,34.05
2024-02-05T13:34:28.200Z,33.08
2024-02-05T13:36:55.934Z,30.33
2024-02-05T13:39:24.242Z,31.35
2024-02-05T13:41:51.426Z,31.15
2024-02-05T13:44:21.517Z,31.02
2024-02-05T13:46:49.436Z,32.17
2024-02-05T13:49:16.517Z,35.00
2024-02-05T13:51:43.558Z,29.52
2024-02-05T13:54:10.473Z,38.03
2024-02-05T13:56:37.324Z,28.23
2024-02-05T13:59:04.488Z,28.92
2024-02-05T14:01:31.575Z,22.52
2024-02-05T14:03:58.857Z,35.03
2024-02-05T14:06:26.380Z,31.73
2024-02-05T14:08:53.566Z,23.50
2024-02-05T14:11:21.318Z,24.75
2024-02-05T14:13:49.037Z,33.15
2024-02-05T14:16:16.509Z,33.92
2024-02-05T14:18:44.509Z,28.33
2024-02-05T14:21:12.060Z,29.55
2024-02-05T14:23:39.111Z,34.70
2024-02-05T14:26:06.415Z,31.73
2024-02-05T14:28:33.348Z,33.08
2024-02-05T14:31:00.309Z,27.13
2024-02-05T14:33:27.386Z,30.75
2024-02-05T14:35:54.558Z,37.55
2024-02-05T14:38:21.492Z,31.63
2024-02-05T14:40:49.664Z,29.67
2024-02-05T14:43:16.854Z,32.17
2024-02-05T14:45:43.939Z,37.88
2024-02-05T14:48:12.057Z,32.00
2024-02-05T14:50:39.114Z,30.02
2024-02-05T14:53:06.492Z,27.60
2024-02-05T14:55:33.433Z,38.85
2024-02-05T14:58:01.459Z,29.20
2024-02-05T15:00:28.369Z,29.85
2024-02-05T15:02:55.342Z,29.20
2024-02-05T15:05:22.625Z,32.97
2024-02-05T15:07:49.862Z,42.30
2024-02-05T15:10:16.964Z,29.63
2024-02-05T15:12:44.226Z,28.10
2024-02-05T15:15:11.640Z,40.65
2024-02-05T15:17:38.855Z,30.77
2024-02-05T15:20:07.962Z,30.00
2024-02-05T15:22:35.603Z,34.70
2024-02-05T15:25:04.243Z,31.15
2024-02-05T15:27:31.374Z,26.63
2024-02-05T15:29:58.433Z,33.60
2024-02-05T15:32:27.164Z,31.83
2024-02-05T15:34:54.566Z,37.67
2024-02-05T15:37:21.705Z,30.95
2024-02-05T15:39:49.096Z,26.63
2024-02-05T15:42:16.111Z,32.30
2024-02-05T15:44:45.285Z,28.80
2024-02-05T15:47:13.686Z,37.83
2024-02-05T15:49:40.908Z,43.25
2024-02-05T15:52:08.021Z,30.75
2024-02-05T15:54:35.178Z,33.50
2024-02-05T15:57:01.971Z,24.65
2024-02-05T15:59:28.943Z,28.77
2024-02-05T16:01:55.996Z,26.95
2024-02-05T16:04:27.999Z,22.63
2024-02-05T16:06:55.465Z,28.10
2024-02-05T16:09:22.472Z,26.77
2024-02-05T16:11:49.429Z,25.67
2024-02-05T16:14:17.770Z,34.65
2024-02-05T16:16:44.657Z,28.98
2024-02-05T16:19:16.207Z,26.90
2024-02-05T16:21:48.980Z,23.65
2024-02-05T16:24:16.263Z,30.58
2024-02-05T16:26:43.289Z,28.35
2024-02-05T16:29:10.370Z,28.98
2024-02-05T16:31:37.302Z,32.97
2024-02-05T16:34:04.504Z,24.50
2024-02-05T16:36:31.642Z,26.55
2024-02-05T16:38:59.161Z,21.75
2024-02-05T16:41:26.246Z,31.63
2024-02-05T16:43:53.181Z,36.72
2024-02-05T16:46:20.437Z,18.85
2024-02-05T16:48:47.723Z,26.38
2024-02-05T16:51:14.892Z,29.98
2024-02-05T16:53:42.569Z,27.35
2024-02-05T16:56:11.021Z,33.60
2024-02-05T16:58:38.561Z,27.13
2024-02-05T17:01:05.731Z,26.65
2024-02-05T17:03:33.158Z,31.40
2024-02-05T17:06:00.103Z,23.67
2024-02-05T17:08:27.154Z,31.98
2024-02-05T17:10:54.360Z,34.83
2024-02-05T17:13:21.472Z,24.88
2024-02-05T17:15:49.959Z,29.70
2024-02-05T17:18:17.712Z,30.23
2024-02-05T17:20:45.133Z,24.23
2024-02-05T17:23:12.572Z,26.30
2024-02-05T17:25:39.732Z,27.35
2024-02-05T17:28:07.042Z,23.98
2024-02-05T17:30:34.187Z,28.88
2024-02-05T17:33:01.323Z,22.85
2024-02-05T17:35:28.837Z,30.13
2024-02-05T17:37:55.758Z,31.63
2024-02-05T17:40:22.789Z,26.52
2024-02-05T17:42:49.883Z,27.35
2024-02-05T17:45:17.379Z,27.23
2024-02-05T17:47:44.765Z,26.45
2024-02-05T17:50:12.336Z,38.28
2024-02-05T17:52:51.182Z,21.95
2024-02-05T17:55:21.047Z,29.63
2024-02-05T17:57:49.056Z,26.33
2024-02-05T18:00:16.843Z,31.35
2024-02-05T18:02:43.910Z,38.17
2024-02-05T18:05:11.049Z,33.40
2024-02-05T18:07:38.161Z,29.63
2024-02-05T18:10:05.821Z,24.33
2024-02-05T18:12:32.916Z,23.67
2024-02-05T18:15:00.272Z,33.42
2024-02-05T18:17:27.123Z,29.35
2024-02-05T18:19:54.125Z,22.65
2024-02-05T18:22:21.171Z,23.15
2024-02-05T18:24:51.227Z,29.15
2024-02-05T18:27:18.793Z,30.33
2024-02-05T18:29:46.002Z,34.92
2024-02-05T18:32:13.088Z,25.75
2024-02-05T18:34:44.775Z,29.15
2024-02-05T18:37:14.442Z,28.75
2024-02-05T18:39:41.530Z,38.53
2024-02-05T18:42:09.094Z,33.58
2024-02-05T18:44:36.652Z,29.90
2024-02-05T18:47:04.342Z,25.70
2024-02-05T18:49:31.560Z,30.13
2024-02-05T18:51:59.536Z,21.65
2024-02-05T18:54:26.878Z,25.08
2024-02-05T18:56:53.877Z,26.83
2024-02-05T18:59:21.501Z,25.15
2024-02-05T19:01:48.587Z,21.98
2024-02-05T19:04:15.831Z,30.65
2024-02-05T19:06:43.148Z,29.85
2024-02-05T19:09:11.707Z,24.45
2024-02-05T19:11:38.957Z,20.85
2024-02-05T19:14:06.403Z,21.90
2024-02-05T19:16:33.952Z,22.60
2024-02-05T19:19:01.202Z,28.77
2024-02-05T19:21:28.343Z,29.13
2024-02-05T19:23:57.717Z,21.65
2024-02-05T19:26:24.927Z,24.95
2024-02-05T19:28:55.484Z,22.98
2024-02-05T19:31:22.875Z,26.90
2024-02-05T19:33:50.371Z,26.42
2024-02-05T19:36:17.783Z,22.55
2024-02-05T19:38:44.672Z,22.95
2024-02-05T19:41:15.456Z,25.85
2024-02-05T19:43:42.658Z,18.33
2024-02-05T19:46:10.135Z,22.95
2024-02-05T19:48:37.674Z,21.95
2024-02-05T19:51:04.824Z,20.33
2024-02-05T19:53:32.033Z,23.08
2024-02-05T19:55:58.864Z,16.67
2024-02-05T19:58:27.124Z,21.73
2024-02-05T20:00:54.336Z,20.52
2024-02-05T20:03:21.719Z,19.80
2024-02-05T20:05:48.912Z,17.80
2024-02-05T20:08:16.048Z,19.65
2024-02-05T20:10:43.250Z,27.88
2024-02-05T20:13:11.437Z,24.58
2024-02-05T20:15:38.773Z,21.17
2024-02-05T20:18:06.074Z,19.95
2024-02-05T20:20:34.185Z,21.20
2024-02-05T20:23:01.436Z,18.45
2024-02-05T20:25:28.602Z,18.50
2024-02-05T20:27:55.866Z,19.52
2024-02-05T20:30:23.379Z,19.25
2024-02-05T20:32:50.844Z,21.30
2024-02-05T20:35:19.070Z,16.17
2024-02-05T20:37:46.207Z,15.15
2024-02-05T20:40:14.113Z,15.40
2024-02-05T20:42:41.268Z,17.67
2024-02-05T20:45:08.658Z,18.42
2024-02-05T20:47:35.870Z,17.55
2024-02-05T20:50:03.254Z,18.63
2024-02-05T20:52:33.365Z,17.60
2024-02-05T20:55:00.871Z,14.57
2024-02-05T20:57:27.881Z,20.30
2024-02-05T20:59:55.039Z,23.52
2024-02-05T21:02:22.028Z,20.75
2024-02-05T21:04:49.824Z,19.00
2024-02-05T21:07:19.032Z,18.40
2024-02-05T21:09:46.306Z,17.77
2024-02-05T21:12:13.780Z,20.25
2024-02-05T21:14:41.463Z,17.90
2024-02-05T21:17:09.608Z,17.35
2024-02-05T21:19:37.122Z,20.52
2024-02-05T21:22:05.874Z,19.55
2024-02-05T21:24:33.041Z,20.10
2024-02-05T21:27:01.875Z,22.27
2024-02-05T21:29:28.976Z,18.30
2024-02-05T21:31:55.943Z,18.70
2024-02-05T21:34:24.247Z,19.02
2024-02-05T21:36:52.493Z,18.10
2024-02-05T21:39:19.492Z,18.67
2024-02-05T21:41:46.448Z,21.92
2024-02-05T21:44:13.355Z,20.08
2024-02-05T21:46:40.682Z,20.55
2024-02-05T21:49:08.220Z,21.60
2024-02-05T21:51:35.376Z,21.85
2024-02-05T21:54:02.535Z,23.27
2024-02-05T21:56:29.412Z,28.63
2024-02-05T21:58:56.624Z,25.13
2024-02-05T22:01:23.728Z,27.10
2024-02-05T22:03:50.968Z,19.73
2024-02-05T22:06:17.902Z,31.85
2024-02-05T22:08:44.976Z,32.08
2024-02-05T22:11:12.125Z,25.23
2024-02-05T22:13:39.402Z,24.50
2024-02-05T22:16:06.572Z,28.45
2024-02-05T22:18:34.004Z,30.67
2024-02-05T22:21:02.102Z,27.88
2024-02-05T22:23:29.821Z,27.48
2024-02-05T22:25:57.208Z,25.25
2024-02-05T22:28:24.331Z,27.83
2024-02-05T22:30:53.246Z,26.63
2024-02-05T22:33:20.389Z,23.63
2024-02-05T22:35:48.652Z,26.27
2024-02-05T22:38:16.334Z,30.23
2024-02-05T22:40:43.418Z,20.65
2024-02-05T22:43:11.664Z,25.75
2024-02-05T22:45:39.933Z,25.88
2024-02-05T22:48:08.036Z,23.85
2024-02-05T22:50:35.402Z,23.67
2024-02-05T22:53:02.224Z,20.92
2024-02-05T22:55:29.209Z,19.33
2024-02-05T22:57:56.118Z,17.42
2024-02-05T23:00:25.770Z,21.83
2024-02-05T23:02:53.533Z,24.40
2024-02-05T23:05:21.628Z,21.95
2024-02-05T23:07:49.457Z,21.33
2024-02-05T23:10:17.242Z,28.73
2024-02-05T23:12:44.176Z,24.58
2024-02-05T23:15:11.222Z,26.83
2024-02-05T23:17:38.079Z,21.80
2024-02-05T23:20:05.664Z,25.42
2024-02-05T23:22:32.843Z,21.42
2024-02-05T23:24:59.720Z,29.10
2024-02-05T23:27:26.585Z,22.92
2024-02-05T23:29:53.386Z,24.48
2024-02-05T23:32:20.296Z,23.85
2024-02-05T23:34:48.416Z,21.95
2024-02-05T23:37:24.644Z,22.70
2024-02-05T23:39:51.587Z,27.20
2024-02-05T23:42:18.505Z,20.02
2024-02-05T23:44:45.316Z,20.38
2024-02-05T23:47:14.921Z,17.40
2024-02-05T23:49:41.956Z,21.27
2024-02-05T23:52:09.011Z,19.63
2024-02-05T23:54:35.912Z,19.17
2024-02-05T23:57:02.723Z,22.27
2024-02-05T23:59:29.615Z,21.88
